Time;durP1;ratioP1;P1;durP2;ratioP2;P2;SDS_P1;SDS_P2;PMS_P1;PMS_P2;Temp;Humidity;BMP_temperature;BMP_pressure;BME280_temperature;BME280_humidity;BME280_pressure;Samples;Min_cycle;Max_cycle;Signal;HPM_P1;HPM_P2
2021/03/02 00:02:04;;;;;;;11.80;5.13;;;;;;;;;;4889043;29;20032;-84
2021/03/02 00:04:31;;;;;;;8.43;4.03;;;;;;;;;;4905900;29;20063;-84
2021/03/02 00:06:57;;;;;;;12.82;4.10;;;;;;;;;;4888783;29;20038;-84
2021/03/02 00:09:24;;;;;;;6.68;3.83;;;;;;;;;;4889271;29;20051;-84
2021/03/02 00:11:51;;;;;;;11.60;4.07;;;;;;;;;;4904216;29;20401;-84
2021/03/02 00:14:18;;;;;;;11.98;4.47;;;;;;;;;;4905272;29;20035;-84
2021/03/02 00:16:45;;;;;;;10.15;4.45;;;;;;;;;;4905426;29;20032;-84
2021/03/02 00:19:15;;;;;;;10.13;4.30;;;;;;;;;;4919495;29;20123;-84
2021/03/02 00:21:45;;;;;;;15.18;4.32;;;;;;;;;;4905830;29;20032;-85
2021/03/02 00:24:12;;;;;;;10.75;4.20;;;;;;;;;;4919146;29;20032;-84
2021/03/02 00:26:42;;;;;;;11.13;4.95;;;;;;;;;;4905112;29;20056;-84
2021/03/02 00:29:09;;;;;;;11.27;4.10;;;;;;;;;;4905135;29;20029;-85
2021/03/02 00:31:35;;;;;;;11.68;4.20;;;;;;;;;;4919547;29;20096;-84
2021/03/02 00:34:01;;;;;;;11.80;3.90;;;;;;;;;;4905495;29;20032;-84
2021/03/02 00:36:27;;;;;;;11.65;4.20;;;;;;;;;;4904735;29;20029;-84
2021/03/02 00:38:53;;;;;;;8.50;4.25;;;;;;;;;;4905230;29;20408;-84
2021/03/02 00:41:20;;;;;;;10.30;3.75;;;;;;;;;;4912022;29;20024;-84
2021/03/02 00:43:46;;;;;;;10.55;3.88;;;;;;;;;;4888236;29;20029;-84
2021/03/02 00:46:12;;;;;;;12.18;4.95;;;;;;;;;;4905010;29;20029;-84
2021/03/02 00:48:38;;;;;;;10.20;4.20;;;;;;;;;;4905997;29;20486;-85
2021/03/02 00:51:04;;;;;;;12.82;3.90;;;;;;;;;;4905410;29;20039;-84
2021/03/02 00:53:30;;;;;;;14.80;3.70;;;;;;;;;;4888655;29;20025;-85
2021/03/02 00:55:56;;;;;;;15.63;5.07;;;;;;;;;;4888027;29;20053;-84
2021/03/02 00:58:22;;;;;;;10.70;4.47;;;;;;;;;;4904755;29;20016;-84
2021/03/02 01:00:48;;;;;;;18.15;5.07;;;;;;;;;;4904198;29;20081;-84
2021/03/02 01:03:14;;;;;;;11.65;3.90;;;;;;;;;;4905468;29;20510;-84
2021/03/02 01:05:41;;;;;;;12.90;4.10;;;;;;;;;;4903541;29;20024;-84
2021/03/02 01:08:07;;;;;;;14.43;4.65;;;;;;;;;;4898968;29;20029;-84
2021/03/02 01:10:33;;;;;;;9.27;3.33;;;;;;;;;;4904637;29;20028;-84
2021/03/02 01:12:59;;;;;;;8.60;3.72;;;;;;;;;;4903648;29;20029;-85
2021/03/02 01:15:25;;;;;;;11.93;3.53;;;;;;;;;;4903550;29;20025;-84
2021/03/02 01:17:51;;;;;;;11.10;4.20;;;;;;;;;;4903261;29;20465;-84
2021/03/02 01:20:17;;;;;;;9.05;3.78;;;;;;;;;;4905004;29;20024;-84
2021/03/02 01:22:43;;;;;;;8.05;3.17;;;;;;;;;;4903986;29;20424;-84
2021/03/02 01:25:10;;;;;;;7.22;3.70;;;;;;;;;;4904499;29;20110;-84
2021/03/02 01:27:36;;;;;;;11.20;4.43;;;;;;;;;;4903204;29;20100;-85
2021/03/02 01:30:04;;;;;;;9.30;4.00;;;;;;;;;;4904060;29;20028;-84
2021/03/02 01:32:30;;;;;;;11.75;4.32;;;;;;;;;;4904878;29;20080;-84
2021/03/02 01:34:56;;;;;;;7.93;3.67;;;;;;;;;;4894023;29;20477;-84
2021/03/02 01:37:22;;;;;;;10.00;3.75;;;;;;;;;;4884396;29;20034;-84
2021/03/02 01:39:48;;;;;;;6.82;3.50;;;;;;;;;;4892291;29;20062;-85
2021/03/02 01:42:14;;;;;;;9.20;3.50;;;;;;;;;;4887422;29;20088;-84
2021/03/02 01:44:40;;;;;;;12.30;3.70;;;;;;;;;;4888070;29;20032;-84
2021/03/02 01:47:07;;;;;;;9.20;4.07;;;;;;;;;;4904318;29;20065;-85
2021/03/02 01:49:33;;;;;;;9.55;4.20;;;;;;;;;;4887852;29;20028;-84
2021/03/02 01:51:59;;;;;;;8.90;3.50;;;;;;;;;;4887064;29;20033;-84
2021/03/02 01:54:26;;;;;;;7.97;3.92;;;;;;;;;;4904315;29;20029;-84
2021/03/02 01:56:52;;;;;;;9.77;3.92;;;;;;;;;;4904328;29;20060;-85
2021/03/02 01:59:19;;;;;;;6.95;4.22;;;;;;;;;;4886954;29;20025;-84
2021/03/02 02:01:45;;;;;;;10.13;4.15;;;;;;;;;;4885531;29;20036;-82
2021/03/02 02:04:14;;;;;;;11.68;4.35;;;;;;;;;;4901724;29;20437;-82
2021/03/02 02:06:43;;;;;;;5.75;3.42;;;;;;;;;;4900683;29;20032;-82
2021/03/02 02:09:13;;;;;;;9.93;4.13;;;;;;;;;;4901588;29;20063;-82
2021/03/02 02:12:01;;;;;;;7.63;3.60;;;;;;;;;;4901116;29;20050;-83
2021/03/02 02:14:38;;;;;;;9.43;4.22;;;;;;;;;;4901726;29;20033;-82
2021/03/02 02:17:07;;;;;;;8.82;4.22;;;;;;;;;;4884028;29;20037;-82
2021/03/02 02:19:33;;;;;;;7.10;3.85;;;;;;;;;;4884135;29;20084;-82
2021/03/02 02:22:18;;;;;;;9.48;4.82;;;;;;;;;;4884023;29;20038;-82
2021/03/02 02:25:08;;;;;;;9.60;3.80;;;;;;;;;;4884163;29;20028;-82
2021/03/02 02:27:34;;;;;;;12.10;4.43;;;;;;;;;;4881523;29;20045;-82
2021/03/02 02:30:01;;;;;;;9.75;4.28;;;;;;;;;;4878310;29;20086;-82
2021/03/02 02:32:27;;;;;;;12.60;4.63;;;;;;;;;;4882643;29;20033;-82
2021/03/02 02:34:55;;;;;;;12.60;4.63;;;;;;;;;;4881330;29;20037;-82
2021/03/02 02:37:22;;;;;;;10.23;4.40;;;;;;;;;;4882423;29;20037;-82
2021/03/02 02:39:48;;;;;;;9.70;4.65;;;;;;;;;;4888117;29;20511;-82
2021/03/02 02:42:14;;;;;;;8.35;4.78;;;;;;;;;;4905120;29;20033;-82
2021/03/02 02:44:41;;;;;;;13.00;4.63;;;;;;;;;;4904857;29;20052;-82
2021/03/02 02:47:07;;;;;;;9.23;5.10;;;;;;;;;;4905060;29;20025;-82
2021/03/02 02:49:35;;;;;;;8.57;4.47;;;;;;;;;;4888371;29;20029;-82
2021/03/02 02:52:01;;;;;;;7.82;4.82;;;;;;;;;;4905142;29;20123;-82
2021/03/02 02:54:28;;;;;;;10.52;4.88;;;;;;;;;;4904880;29;20036;-82
2021/03/02 02:56:54;;;;;;;12.30;4.60;;;;;;;;;;4887102;29;20179;-82
2021/03/02 02:59:25;;;;;;;13.18;5.20;;;;;;;;;;4904759;29;20036;-82
2021/03/02 03:01:54;;;;;;;9.52;4.38;;;;;;;;;;4887396;29;20036;-82
2021/03/02 03:04:27;;;;;;;9.25;4.60;;;;;;;;;;4904726;29;20039;-82
2021/03/02 03:06:54;;;;;;;12.88;5.63;;;;;;;;;;4904531;29;20036;-82
2021/03/02 03:09:22;;;;;;;13.88;4.80;;;;;;;;;;4904529;29;20100;-82
2021/03/02 03:11:50;;;;;;;11.75;4.88;;;;;;;;;;4887279;29;20523;-82
2021/03/02 03:14:18;;;;;;;10.73;5.05;;;;;;;;;;4887852;29;20449;-82
2021/03/02 03:16:45;;;;;;;9.30;4.65;;;;;;;;;;4904738;29;20035;-83
2021/03/02 03:19:17;;;;;;;10.35;4.82;;;;;;;;;;4887276;29;20031;-82
2021/03/02 03:21:45;;;;;;;7.75;4.63;;;;;;;;;;4904384;29;20400;-82
2021/03/02 03:24:11;;;;;;;17.90;5.80;;;;;;;;;;4904024;29;20053;-82
2021/03/02 03:26:38;;;;;;;12.18;5.68;;;;;;;;;;4918809;29;20568;-82
2021/03/02 03:29:04;;;;;;;8.32;5.25;;;;;;;;;;4918773;29;20028;-82
2021/03/02 03:31:31;;;;;;;7.18;4.40;;;;;;;;;;4904181;29;20033;-82
2021/03/02 03:33:58;;;;;;;11.48;5.03;;;;;;;;;;4918333;29;20033;-82
2021/03/02 03:36:25;;;;;;;9.45;4.65;;;;;;;;;;4904652;29;20025;-82
2021/03/02 03:38:51;;;;;;;11.15;5.25;;;;;;;;;;4918803;29;20088;-82
2021/03/02 03:41:17;;;;;;;13.50;5.18;;;;;;;;;;4904663;29;20089;-82
2021/03/02 03:43:43;;;;;;;9.90;4.63;;;;;;;;;;4903768;29;20119;-82
2021/03/02 03:46:09;;;;;;;8.50;4.07;;;;;;;;;;4903925;29;20173;-82
2021/03/02 03:48:36;;;;;;;11.98;4.55;;;;;;;;;;4886787;29;20032;-82
2021/03/02 03:51:02;;;;;;;10.48;4.88;;;;;;;;;;4903347;29;20024;-82
2021/03/02 03:53:31;;;;;;;10.95;4.60;;;;;;;;;;4903326;29;20024;-82
2021/03/02 03:55:58;;;;;;;12.13;4.72;;;;;;;;;;4904007;29;20044;-82
2021/03/02 03:58:26;;;;;;;10.27;4.40;;;;;;;;;;4903890;29;20040;-82
2021/03/02 04:00:53;;;;;;;9.05;4.07;;;;;;;;;;4883250;29;20067;-82
2021/03/02 04:03:19;;;;;;;13.15;4.10;;;;;;;;;;4884341;29;20025;-82
2021/03/02 04:05:46;;;;;;;8.57;3.85;;;;;;;;;;4885018;29;20033;-82
2021/03/02 04:08:12;;;;;;;13.07;4.25;;;;;;;;;;4883478;29;20050;-82
2021/03/02 04:10:39;;;;;;;10.18;3.47;;;;;;;;;;4883587;29;20082;-82
2021/03/02 04:13:09;;;;;;;8.27;3.42;;;;;;;;;;4883408;29;20454;-82
2021/03/02 04:15:36;;;;;;;8.27;3.83;;;;;;;;;;4883784;29;20037;-82
2021/03/02 04:18:02;;;;;;;7.30;3.72;;;;;;;;;;4884524;29;20097;-82
2021/03/02 04:20:28;;;;;;;7.30;3.70;;;;;;;;;;4884716;29;20033;-82
2021/03/02 04:22:57;;;;;;;9.60;3.75;;;;;;;;;;4884733;29;20488;-82
2021/03/02 04:25:24;;;;;;;12.75;4.20;;;;;;;;;;4884415;29;20055;-82
2021/03/02 04:27:50;;;;;;;7.22;3.55;;;;;;;;;;4883002;29;20029;-82
2021/03/02 04:30:16;;;;;;;9.77;4.18;;;;;;;;;;4884227;29;20055;-82
2021/03/02 04:32:42;;;;;;;9.00;3.50;;;;;;;;;;4884575;29;20040;-82
2021/03/02 04:35:09;;;;;;;10.15;3.53;;;;;;;;;;4884000;29;20134;-82
2021/03/02 04:37:36;;;;;;;10.98;3.90;;;;;;;;;;4884528;29;20025;-82
2021/03/02 04:40:03;;;;;;;11.60;3.63;;;;;;;;;;4884048;29;20405;-82
2021/03/02 04:42:29;;;;;;;8.48;4.20;;;;;;;;;;4883195;29;20116;-82
2021/03/02 04:44:55;;;;;;;11.80;4.00;;;;;;;;;;4884307;29;20029;-82
2021/03/02 04:47:21;;;;;;;7.05;3.60;;;;;;;;;;4884348;29;20029;-82
2021/03/02 04:49:47;;;;;;;9.27;3.95;;;;;;;;;;4883834;29;20120;-82
2021/03/02 04:52:13;;;;;;;7.88;3.65;;;;;;;;;;4914112;29;20073;-82
2021/03/02 04:54:39;;;;;;;10.80;4.20;;;;;;;;;;4883813;29;20086;-82
2021/03/02 04:57:05;;;;;;;11.88;4.10;;;;;;;;;;4884130;29;20512;-82
2021/03/02 04:59:32;;;;;;;10.02;4.40;;;;;;;;;;4885747;29;20037;-82
2021/03/02 05:01:58;;;;;;;8.55;3.53;;;;;;;;;;4885582;29;20025;-82
2021/03/02 05:04:24;;;;;;;10.85;4.07;;;;;;;;;;4901228;29;20107;-82
2021/03/02 05:06:50;;;;;;;10.25;3.60;;;;;;;;;;4902325;29;20016;-82
2021/03/02 05:09:16;;;;;;;8.57;4.07;;;;;;;;;;4885522;29;20028;-82
2021/03/02 05:11:42;;;;;;;8.32;4.20;;;;;;;;;;4885953;29;20025;-82
2021/03/02 05:14:08;;;;;;;9.20;3.92;;;;;;;;;;4901877;29;20028;-82
2021/03/02 05:16:34;;;;;;;10.00;4.18;;;;;;;;;;4916996;29;20032;-82
2021/03/02 05:19:00;;;;;;;6.53;3.92;;;;;;;;;;4902353;29;20489;-82
2021/03/02 05:21:26;;;;;;;13.18;4.00;;;;;;;;;;4917096;29;20025;-82
2021/03/02 05:23:52;;;;;;;9.20;3.58;;;;;;;;;;4916719;29;20025;-82
2021/03/02 05:26:21;;;;;;;10.15;3.83;;;;;;;;;;4915994;29;20029;-82
2021/03/02 05:28:50;;;;;;;12.00;4.30;;;;;;;;;;4902576;29;20036;-82
2021/03/02 05:31:17;;;;;;;11.35;3.53;;;;;;;;;;4902284;29;20535;-82
2021/03/02 05:33:43;;;;;;;10.27;3.70;;;;;;;;;;4917086;29;20119;-82
2021/03/02 05:36:09;;;;;;;32.28;6.72;;;;;;;;;;4902720;29;20074;-83
2021/03/02 05:38:35;;;;;;;10.18;4.47;;;;;;;;;;4902334;29;20043;-82
2021/03/02 05:41:03;;;;;;;7.70;3.65;;;;;;;;;;4901737;29;20480;-82
2021/03/02 05:43:29;;;;;;;6.78;3.45;;;;;;;;;;4901915;29;20568;-82
2021/03/02 05:45:56;;;;;;;8.85;3.25;;;;;;;;;;4902276;29;20028;-82
2021/03/02 05:48:23;;;;;;;9.98;4.07;;;;;;;;;;4901765;29;20084;-82
2021/03/02 05:50:53;;;;;;;11.45;3.97;;;;;;;;;;4901847;29;20061;-82
2021/03/02 05:53:19;;;;;;;8.32;4.05;;;;;;;;;;4901297;29;20064;-82
2021/03/02 05:55:46;;;;;;;9.88;3.63;;;;;;;;;;4884776;29;20416;-82
2021/03/02 05:58:14;;;;;;;6.88;2.97;;;;;;;;;;4902108;29;20028;-82
2021/03/02 06:00:40;;;;;;;12.15;3.80;;;;;;;;;;4881073;29;20581;-82
2021/03/02 06:03:06;;;;;;;15.65;4.55;;;;;;;;;;4881358;29;20097;-82
2021/03/02 06:05:34;;;;;;;9.90;3.25;;;;;;;;;;4881422;29;20109;-82
2021/03/02 06:08:00;;;;;;;10.65;3.47;;;;;;;;;;4864398;29;20029;-82
2021/03/02 06:10:30;;;;;;;8.20;3.70;;;;;;;;;;4864051;29;20026;-82
2021/03/02 06:12:57;;;;;;;10.35;3.85;;;;;;;;;;4878337;29;20089;-82
2021/03/02 06:15:24;;;;;;;10.23;3.95;;;;;;;;;;4863274;29;20073;-82
2021/03/02 06:18:09;;;;;;;13.13;3.90;;;;;;;;;;4883721;29;20068;-82
2021/03/02 06:20:36;;;;;;;11.82;3.25;;;;;;;;;;4883392;29;20493;-82
2021/03/02 06:23:21;;;;;;;6.70;2.95;;;;;;;;;;4883958;29;20120;-82
2021/03/02 06:25:47;;;;;;;7.40;3.78;;;;;;;;;;4899995;29;20020;-83
2021/03/02 06:28:13;;;;;;;13.57;3.70;;;;;;;;;;4885132;29;20033;-82
2021/03/02 06:30:40;;;;;;;8.55;4.80;;;;;;;;;;4885505;29;20107;-82
2021/03/02 06:33:16;;;;;;;8.45;3.60;;;;;;;;;;4886017;29;20092;-82
2021/03/02 06:35:44;;;;;;;10.57;4.07;;;;;;;;;;4884615;29;20401;-82
2021/03/02 06:38:11;;;;;;;11.13;4.65;;;;;;;;;;4899455;29;20079;-82
2021/03/02 06:40:37;;;;;;;11.05;4.18;;;;;;;;;;4885451;29;20037;-82
2021/03/02 06:43:03;;;;;;;11.15;4.05;;;;;;;;;;4884163;29;20029;-82
2021/03/02 06:45:29;;;;;;;11.85;3.88;;;;;;;;;;4885760;29;20040;-82
2021/03/02 06:48:05;;;;;;;9.80;3.80;;;;;;;;;;4885522;29;20021;-82
2021/03/02 06:50:37;;;;;;;7.18;3.78;;;;;;;;;;4883987;29;20029;-82
2021/03/02 06:53:08;;;;;;;8.70;3.60;;;;;;;;;;4899622;29;20466;-82
2021/03/02 06:55:37;;;;;;;7.35;3.63;;;;;;;;;;4884180;29;20524;-82
2021/03/02 06:58:21;;;;;;;7.95;3.80;;;;;;;;;;4883720;29;20111;-82
2021/03/02 07:00:52;;;;;;;12.95;3.78;;;;;;;;;;4886896;29;20056;-82
2021/03/02 07:03:26;;;;;;;10.02;4.05;;;;;;;;;;4886883;29;20131;-82
2021/03/02 07:05:52;;;;;;;;;;;;;;;;;;4903986;29;20033;-82
2021/03/02 07:08:18;;;;;;;12.07;3.55;;;;;;;;;;4903976;29;19967;-82
2021/03/02 07:10:49;;;;;;;13.00;4.15;;;;;;;;;;4903666;29;20028;-82
2021/03/02 07:13:16;;;;;;;9.30;3.88;;;;;;;;;;4903298;29;20036;-82
2021/03/02 07:15:44;;;;;;;10.25;4.15;;;;;;;;;;4903871;29;20080;-82
2021/03/02 07:18:13;;;;;;;13.98;4.28;;;;;;;;;;4886818;29;20037;-82
2021/03/02 07:20:40;;;;;;;10.13;4.00;;;;;;;;;;4886285;29;20048;-82
2021/03/02 07:23:08;;;;;;;8.05;3.80;;;;;;;;;;4886371;29;20506;-82
2021/03/02 07:25:36;;;;;;;13.30;3.90;;;;;;;;;;4886649;29;20036;-82
2021/03/02 07:28:05;;;;;;;5.55;3.17;;;;;;;;;;4874776;29;20509;-82
2021/03/02 07:30:31;;;;;;;8.65;3.78;;;;;;;;;;4886247;29;20115;-81
2021/03/02 07:32:58;;;;;;;11.27;4.45;;;;;;;;;;4895686;29;20029;-82
2021/03/02 07:35:25;;;;;;;9.93;4.43;;;;;;;;;;4867469;29;20029;-82
2021/03/02 07:37:51;;;;;;;10.90;4.05;;;;;;;;;;4867401;29;20075;-82
2021/03/02 07:40:19;;;;;;;11.50;3.60;;;;;;;;;;4866221;29;20025;-82
2021/03/02 07:42:45;;;;;;;11.40;3.88;;;;;;;;;;4884112;29;20029;-82
2021/03/02 07:45:12;;;;;;;14.70;4.00;;;;;;;;;;4874768;29;20028;-82
2021/03/02 07:47:45;;;;;;;12.25;5.80;;;;;;;;;;4902343;29;20080;-82
2021/03/02 07:50:34;;;;;;;15.60;4.90;;;;;;;;;;4903031;29;20025;-82
2021/03/02 07:53:10;;;;;;;14.15;4.70;;;;;;;;;;4880767;29;20037;-82
2021/03/02 07:55:36;;;;;;;18.65;4.90;;;;;;;;;;4883337;29;20095;-82
2021/03/02 07:58:21;;;;;;;13.07;4.75;;;;;;;;;;4882613;29;20032;-82
2021/03/02 08:00:48;;;;;;;17.23;6.03;;;;;;;;;;4880237;29;20052;-82
2021/03/02 08:03:23;;;;;;;16.73;5.20;;;;;;;;;;4900374;29;20045;-84
2021/03/02 08:05:50;;;;;;;15.32;4.38;;;;;;;;;;4882817;29;20495;-84
2021/03/02 08:08:25;;;;;;;20.65;6.40;;;;;;;;;;4900805;29;20029;-83
2021/03/02 08:10:55;;;;;;;19.63;6.07;;;;;;;;;;4880591;29;20062;-83
2021/03/02 08:13:33;;;;;;;20.33;5.18;;;;;;;;;;4885837;29;20037;-82
2021/03/02 08:16:00;;;;;;;28.45;6.32;;;;;;;;;;4891932;29;20384;-83
2021/03/02 08:18:27;;;;;;;18.85;5.38;;;;;;;;;;4900379;29;20112;-82
2021/03/02 08:21:07;;;;;;;17.83;5.15;;;;;;;;;;4907775;29;20025;-82
2021/03/02 08:23:49;;;;;;;15.73;4.50;;;;;;;;;;4894265;29;20060;-82
2021/03/02 08:26:22;;;;;;;16.90;4.60;;;;;;;;;;4886325;29;20025;-83
2021/03/02 08:29:03;;;;;;;13.30;4.07;;;;;;;;;;4893750;29;20037;-82
2021/03/02 08:31:29;;;;;;;17.10;5.22;;;;;;;;;;4897894;29;20037;-83
2021/03/02 08:33:56;;;;;;;14.02;4.47;;;;;;;;;;4900182;29;20037;-84
2021/03/02 08:36:23;;;;;;;12.80;4.50;;;;;;;;;;4897502;29;20037;-82
2021/03/02 08:38:49;;;;;;;14.35;4.93;;;;;;;;;;4901306;29;20053;-83
2021/03/02 08:41:27;;;;;;;12.02;5.22;;;;;;;;;;4899790;29;20544;-82
2021/03/02 08:43:53;;;;;;;14.13;4.80;;;;;;;;;;4885476;29;20668;-82
2021/03/02 08:46:45;;;;;;;19.35;7.15;;;;;;;;;;4882742;29;20096;-82
2021/03/02 08:49:12;;;;;;;19.48;5.15;;;;;;;;;;4895452;29;20061;-82
2021/03/02 08:51:39;;;;;;;11.82;5.25;;;;;;;;;;4893671;29;20056;-82
2021/03/02 08:54:06;;;;;;;15.52;6.70;;;;;;;;;;4881062;29;20048;-82
2021/03/02 08:56:32;;;;;;;14.23;4.93;;;;;;;;;;4882114;29;20041;-83
2021/03/02 08:59:14;;;;;;;15.10;4.45;;;;;;;;;;4898431;29;20030;-83
2021/03/02 09:01:41;;;;;;;11.95;4.95;;;;;;;;;;4885083;29;20492;-83
2021/03/02 09:04:15;;;;;;;15.18;4.45;;;;;;;;;;4898047;29;20043;-84
2021/03/02 09:06:42;;;;;;;15.18;5.10;;;;;;;;;;4897385;29;20020;-82
2021/03/02 09:09:09;;;;;;;12.73;4.50;;;;;;;;;;4881604;29;20029;-83
2021/03/02 09:11:39;;;;;;;8.88;4.25;;;;;;;;;;4888638;29;20096;-83
2021/03/02 09:14:26;;;;;;;15.43;5.30;;;;;;;;;;4870815;29;20027;-82
2021/03/02 09:16:52;;;;;;;18.60;4.65;;;;;;;;;;4883349;29;20032;-83
2021/03/02 09:19:18;;;;;;;10.40;5.40;;;;;;;;;;4881095;29;20021;-82
2021/03/02 09:21:49;;;;;;;14.15;5.32;;;;;;;;;;4890936;29;20405;-82
2021/03/02 09:24:16;;;;;;;14.88;5.03;;;;;;;;;;4878472;29;20043;-83
2021/03/02 09:26:49;;;;;;;19.63;5.40;;;;;;;;;;4898675;29;20035;-83
2021/03/02 09:29:15;;;;;;;10.63;4.60;;;;;;;;;;4893967;29;20029;-82
2021/03/02 09:31:41;;;;;;;20.42;5.32;;;;;;;;;;4897755;29;20028;-84
2021/03/02 09:34:08;;;;;;;17.05;4.93;;;;;;;;;;4895042;29;20021;-85
2021/03/02 09:36:34;;;;;;;12.60;4.70;;;;;;;;;;4884630;29;20073;-84
2021/03/02 09:39:01;;;;;;;16.70;4.63;;;;;;;;;;4897336;29;20064;-82
2021/03/02 09:41:37;;;;;;;15.93;4.80;;;;;;;;;;4899743;29;20025;-81
2021/03/02 09:44:19;;;;;;;11.00;4.43;;;;;;;;;;4888685;29;20033;-81
2021/03/02 09:46:46;;;;;;;16.17;4.78;;;;;;;;;;4881659;29;20093;-82
2021/03/02 09:49:12;;;;;;;10.20;4.32;;;;;;;;;;4895113;29;20595;-81
2021/03/02 09:51:45;;;;;;;14.18;4.60;;;;;;;;;;4890677;29;20037;-81
2021/03/02 09:54:15;;;;;;;11.32;4.65;;;;;;;;;;4896232;29;20023;-82
2021/03/02 09:56:55;;;;;;;15.48;4.90;;;;;;;;;;4893137;29;20704;-82
2021/03/02 09:59:21;;;;;;;10.45;4.85;;;;;;;;;;4897143;29;20033;-82
2021/03/02 10:01:48;;;;;;;10.35;4.38;;;;;;;;;;4867164;29;20044;-82
2021/03/02 10:04:14;;;;;;;13.27;4.88;;;;;;;;;;4874741;29;20034;-81
2021/03/02 10:06:40;;;;;;;15.30;4.82;;;;;;;;;;4871064;29;20033;-82
2021/03/02 10:09:18;;;;;;;15.93;4.85;;;;;;;;;;4873683;29;20033;-83
2021/03/02 10:11:44;;;;;;;13.93;3.90;;;;;;;;;;4869478;29;20033;-81
2021/03/02 10:14:11;;;;;;;15.18;3.90;;;;;;;;;;4867408;29;20692;-82
2021/03/02 10:16:39;;;;;;;12.07;5.05;;;;;;;;;;4873480;29;20041;-82
2021/03/02 10:19:06;;;;;;;13.90;4.72;;;;;;;;;;4890057;29;20025;-83
2021/03/02 10:21:32;;;;;;;16.80;6.53;;;;;;;;;;4873239;29;20039;-83
2021/03/02 10:23:59;;;;;;;26.98;12.75;;;;;;;;;;4875582;29;20108;-83
2021/03/02 10:26:27;;;;;;;11.98;5.30;;;;;;;;;;4872721;29;20064;-83
2021/03/02 10:28:53;;;;;;;17.83;5.32;;;;;;;;;;4865799;29;20029;-82
2021/03/02 10:31:20;;;;;;;17.02;5.63;;;;;;;;;;4857662;29;20041;-82
2021/03/02 10:33:47;;;;;;;10.77;5.30;;;;;;;;;;4862595;29;20029;-82
2021/03/02 10:36:23;;;;;;;18.45;5.35;;;;;;;;;;4872778;29;20041;-83
2021/03/02 10:38:50;;;;;;;10.40;4.70;;;;;;;;;;4870136;29;20036;-82
2021/03/02 10:41:18;;;;;;;13.07;5.47;;;;;;;;;;4876687;29;20096;-82
2021/03/02 10:43:44;;;;;;;17.80;5.47;;;;;;;;;;4870938;29;20048;-82
2021/03/02 10:46:10;;;;;;;8.50;4.43;;;;;;;;;;4866133;29;20486;-81
2021/03/02 10:48:38;;;;;;;14.00;4.97;;;;;;;;;;4877854;29;20025;-82
2021/03/02 10:51:04;;;;;;;10.82;4.60;;;;;;;;;;4874737;29;20540;-82
2021/03/02 10:53:30;;;;;;;14.77;4.85;;;;;;;;;;4887475;29;20036;-82
2021/03/02 10:55:56;;;;;;;13.70;4.65;;;;;;;;;;4860225;29;20033;-81
2021/03/02 10:58:24;;;;;;;13.48;4.95;;;;;;;;;;4875331;29;20394;-81
2021/03/02 11:00:50;;;;;;;15.07;5.63;;;;;;;;;;4863868;29;20090;-83
2021/03/02 11:03:17;;;;;;;10.75;4.22;;;;;;;;;;4882207;29;20040;-82
2021/03/02 11:05:43;;;;;;;9.48;4.13;;;;;;;;;;4887026;29;20036;-82
2021/03/02 11:08:09;;;;;;;9.48;4.10;;;;;;;;;;4882054;29;20035;-81
2021/03/02 11:10:35;;;;;;;16.80;5.55;;;;;;;;;;4883812;29;20053;-81
2021/03/02 11:13:01;;;;;;;11.88;5.22;;;;;;;;;;4884662;29;20025;-83
2021/03/02 11:15:27;;;;;;;10.05;4.57;;;;;;;;;;4877839;29;20032;-82
2021/03/02 11:17:53;;;;;;;11.77;4.30;;;;;;;;;;4878740;29;20041;-81
2021/03/02 11:20:19;;;;;;;10.30;4.40;;;;;;;;;;4878402;29;20040;-82
2021/03/02 11:22:45;;;;;;;9.88;4.13;;;;;;;;;;4880730;29;20128;-83
2021/03/02 11:25:17;;;;;;;9.50;3.50;;;;;;;;;;4882423;29;20073;-82
2021/03/02 11:27:43;;;;;;;9.25;3.92;;;;;;;;;;4879461;29;20443;-82
2021/03/02 11:30:10;;;;;;;8.73;3.70;;;;;;;;;;4878245;29;20024;-82
2021/03/02 11:32:36;;;;;;;9.50;3.92;;;;;;;;;;4874673;29;20048;-82
2021/03/02 11:35:02;;;;;;;13.20;3.38;;;;;;;;;;4881242;29;20177;-82
2021/03/02 11:37:28;;;;;;;11.75;3.85;;;;;;;;;;4880867;29;20033;-81
2021/03/02 11:39:54;;;;;;;7.82;4.20;;;;;;;;;;4886465;29;20044;-81
2021/03/02 11:42:20;;;;;;;9.23;4.32;;;;;;;;;;4879804;29;20029;-82
2021/03/02 11:44:47;;;;;;;9.02;4.40;;;;;;;;;;4882315;29;20069;-82
2021/03/02 11:47:13;;;;;;;9.60;4.70;;;;;;;;;;4881802;29;20025;-81
2021/03/02 11:49:42;;;;;;;8.80;4.80;;;;;;;;;;4878940;29;20430;-83
2021/03/02 11:52:08;;;;;;;13.52;4.40;;;;;;;;;;4872409;29;20033;-82
2021/03/02 11:54:34;;;;;;;10.07;4.30;;;;;;;;;;4879468;29;20044;-82
2021/03/02 11:57:00;;;;;;;11.02;4.32;;;;;;;;;;4880514;29;20033;-83
2021/03/02 11:59:26;;;;;;;12.57;4.53;;;;;;;;;;4881152;29;20794;-81
2021/03/02 12:01:52;;;;;;;11.85;4.75;;;;;;;;;;4898834;29;20056;-82
2021/03/02 12:04:18;;;;;;;9.95;3.53;;;;;;;;;;4899364;29;20029;-82
2021/03/02 12:06:44;;;;;;;10.50;3.90;;;;;;;;;;4873232;29;20123;-81
2021/03/02 12:09:10;;;;;;;11.23;4.07;;;;;;;;;;4894909;29;20035;-83
2021/03/02 12:11:36;;;;;;;11.55;3.88;;;;;;;;;;4897095;29;20032;-83
2021/03/02 12:14:02;;;;;;;10.38;4.30;;;;;;;;;;4890883;29;20037;-83
2021/03/02 12:16:28;;;;;;;10.25;4.10;;;;;;;;;;4898083;29;20357;-82
2021/03/02 12:18:55;;;;;;;9.90;3.92;;;;;;;;;;4870239;29;20088;-84
2021/03/02 12:21:21;;;;;;;11.13;4.43;;;;;;;;;;4886865;29;20028;-83
2021/03/02 12:23:47;;;;;;;15.32;3.90;;;;;;;;;;4889461;29;20083;-82
2021/03/02 12:26:13;;;;;;;13.63;5.00;;;;;;;;;;4883283;29;20024;-84
2021/03/02 12:28:39;;;;;;;18.95;5.22;;;;;;;;;;4896564;29;20032;-82
2021/03/02 12:31:05;;;;;;;10.88;3.97;;;;;;;;;;4893637;29;20044;-82
2021/03/02 12:33:32;;;;;;;15.52;4.55;;;;;;;;;;4890927;29;20033;-83
2021/03/02 12:35:58;;;;;;;11.35;4.20;;;;;;;;;;4890021;29;20033;-83
2021/03/02 12:38:24;;;;;;;9.98;4.05;;;;;;;;;;4888901;29;20412;-83
2021/03/02 12:40:50;;;;;;;9.75;4.28;;;;;;;;;;4896229;29;20080;-83
2021/03/02 12:43:19;;;;;;;11.57;4.65;;;;;;;;;;4883562;29;20041;-81
2021/03/02 12:45:45;;;;;;;17.40;4.10;;;;;;;;;;4875024;29;20777;-81
2021/03/02 12:48:12;;;;;;;12.75;4.70;;;;;;;;;;4894472;29;20081;-82
2021/03/02 12:50:38;;;;;;;12.77;4.22;;;;;;;;;;4887881;29;20040;-82
2021/03/02 12:53:04;;;;;;;12.90;4.38;;;;;;;;;;4894383;29;20040;-83
2021/03/02 12:55:30;;;;;;;11.63;4.63;;;;;;;;;;4898451;29;20028;-82
2021/03/02 12:57:56;;;;;;;13.10;4.03;;;;;;;;;;4882533;29;20460;-82
2021/03/02 13:00:25;;;;;;;11.25;4.00;;;;;;;;;;4883418;29;20088;-83
2021/03/02 13:02:51;;;;;;;15.20;4.20;;;;;;;;;;4886070;29;20592;-83
2021/03/02 13:05:18;;;;;;;12.40;4.03;;;;;;;;;;4896123;29;20027;-83
2021/03/02 13:07:45;;;;;;;13.35;3.70;;;;;;;;;;4897254;29;20416;-83
2021/03/02 13:10:11;;;;;;;15.55;4.10;;;;;;;;;;4895413;29;20058;-82
2021/03/02 13:12:37;;;;;;;11.15;4.55;;;;;;;;;;4889237;29;20044;-83
2021/03/02 13:15:04;;;;;;;16.15;4.32;;;;;;;;;;4873104;29;20114;-82
2021/03/02 13:17:30;;;;;;;12.90;4.15;;;;;;;;;;4878565;29;20033;-83
2021/03/02 13:19:58;;;;;;;11.57;5.75;;;;;;;;;;4878733;29;20040;-82
2021/03/02 13:22:25;;;;;;;15.88;5.63;;;;;;;;;;4890860;29;20492;-82
2021/03/02 13:24:51;;;;;;;14.65;5.63;;;;;;;;;;4897175;29;20024;-83
2021/03/02 13:27:17;;;;;;;13.88;4.97;;;;;;;;;;4895867;29;20497;-82
2021/03/02 13:29:44;;;;;;;12.98;6.40;;;;;;;;;;4897096;29;20504;-82
2021/03/02 13:32:17;;;;;;;19.80;4.65;;;;;;;;;;4894773;29;20479;-82
2021/03/02 13:34:45;;;;;;;17.77;4.60;;;;;;;;;;4888440;29;20029;-82
2021/03/02 13:37:14;;;;;;;14.43;3.95;;;;;;;;;;4896693;29;20496;-82
2021/03/02 13:39:42;;;;;;;11.85;4.18;;;;;;;;;;4894909;29;20420;-82
2021/03/02 13:42:09;;;;;;;18.52;4.82;;;;;;;;;;4873228;29;20421;-83
2021/03/02 13:44:36;;;;;;;11.55;3.88;;;;;;;;;;4890621;29;20414;-83
2021/03/02 13:47:02;;;;;;;12.73;4.35;;;;;;;;;;4886419;29;20036;-83
2021/03/02 13:49:28;;;;;;;14.02;4.65;;;;;;;;;;4897734;29;20081;-83
2021/03/02 13:51:55;;;;;;;14.90;5.55;;;;;;;;;;4897070;29;20453;-83
2021/03/02 13:54:21;;;;;;;12.43;4.43;;;;;;;;;;4881173;29;20405;-83
2021/03/02 13:56:48;;;;;;;14.95;4.70;;;;;;;;;;4895958;29;20032;-82
2021/03/02 13:59:14;;;;;;;15.40;6.13;;;;;;;;;;4895970;29;20056;-83
2021/03/02 14:01:41;;;;;;;15.88;5.55;;;;;;;;;;4886630;29;20052;-83
2021/03/02 14:04:07;;;;;;;16.58;4.93;;;;;;;;;;4891721;29;20032;-83
2021/03/02 14:06:38;;;;;;;16.27;4.88;;;;;;;;;;4876726;29;20043;-82
2021/03/02 14:09:05;;;;;;;12.27;5.88;;;;;;;;;;4894856;29;20466;-83
2021/03/02 14:11:31;;;;;;;13.35;5.47;;;;;;;;;;4895517;29;20032;-82
2021/03/02 14:13:58;;;;;;;14.18;4.55;;;;;;;;;;4879313;29;20036;-82
2021/03/02 14:16:26;;;;;;;14.55;4.70;;;;;;;;;;4897080;29;20041;-82
2021/03/02 14:18:56;;;;;;;11.98;4.13;;;;;;;;;;4896028;29;20560;-83
2021/03/02 14:21:22;;;;;;;14.10;4.95;;;;;;;;;;4895138;29;20039;-83
2021/03/02 14:23:49;;;;;;;18.00;5.07;;;;;;;;;;4905216;29;20044;-82
2021/03/02 14:26:16;;;;;;;13.35;4.38;;;;;;;;;;4881515;29;20029;-82
2021/03/02 14:28:42;;;;;;;14.63;4.18;;;;;;;;;;4887892;29;20060;-83
2021/03/02 14:31:10;;;;;;;11.88;4.57;;;;;;;;;;4895636;29;20104;-82
2021/03/02 14:33:36;;;;;;;15.85;4.85;;;;;;;;;;4884799;29;20497;-81
2021/03/02 14:36:03;;;;;;;13.20;4.43;;;;;;;;;;4891266;29;20761;-82
2021/03/02 14:38:29;;;;;;;13.45;4.15;;;;;;;;;;4894920;29;20056;-83